Hauptseite
METAR-TAF:

METAR-TAF

Flughäfen :

Shanghai-Pudong, China

Shanghai Pudong International Airport

Breite: 31-07N, Länge: 121-46E, Höhe: 4 m

Beobachtung

Neuester Wetterbericht von vor 21 Minuten, um 21:30 UTC
Wind 4 kt aus Nord
Temperatur 2°C
Luftfeuchtigkeit 100%
Luftdruck 1026 hPa
Sichtweite 10 km oder mehr
Teilweise durch Nebel bedeckt

METAR: ZSPD 252130Z 35002MPS 9999 PRFG NSC 02/02 Q1026 NOSIG

Zeit: 05:51 (21:51 UTC)

Prognose

Neuester Wetterbericht von vor 6 Stunden und 19 Minuten, um 15:32 UTC
Gültige Prognose vom 25 um 18 UTC bis 26 um 18 UTC
Wind 8 kt aus Nordost
Sichtweite: 5000 m
Aufgelockert bewölkt in der Höhe von 1500 ft
feuchter Dunst
Übergehend zu
vom 26 um 04 UTC bis 26 um 06 UTC
Wind 8 kt aus Ost/Südost

TAF: ZSPD 251532Z 2518/2618 04004MPS 5000 BR SCT015 TX13/2606Z TN03/2521Z BECMG 2604/2606 11004MPS

Wetterbeobachtungen und Prognosen von mehr als 4000 Flughäfen (METAR und TAF Bericht).

Die verfügbaren Stationen werden durch gelbe und rote Markierungen auf der Karte dargestellt.

Führen Sie die Maus auf sie, um den Namen der Station zu sehen.

Darauf klicken, um die Beobachtung von Wetterbeobachtungen und Prognosen zu sehen.

Um die Karte zu ändern : klicken Sie auf den grünen Tasten mit einem schwarzen Kreuz Zum Vergrößern, auf den grünen Button mit einem Gedankenstrich zu verkleinern, oder auf die grünen Pfeile für benachbarte Karten.


METAR-TAF: